createdAt,value
2022-12-27T00:00:46.312Z,0.52
2022-12-27T00:03:16.315Z,0.68
2022-12-27T00:05:46.756Z,2.63
2022-12-27T00:08:17.302Z,1.38
2022-12-27T00:10:47.350Z,2.20
2022-12-27T00:13:19.996Z,2.15
2022-12-27T00:15:50.050Z,2.50
2022-12-27T00:18:20.042Z,1.05
2022-12-27T00:20:50.123Z,1.38
2022-12-27T00:23:20.079Z,1.98
2022-12-27T00:25:50.152Z,1.55
2022-12-27T00:28:22.762Z,1.23
2022-12-27T00:30:57.679Z,1.38
2022-12-27T00:33:27.844Z,2.80
2022-12-27T00:35:57.952Z,1.45
2022-12-27T00:38:28.121Z,0.82
2022-12-27T00:40:58.708Z,2.20
2022-12-27T00:43:31.437Z,1.13
2022-12-27T00:46:01.756Z,1.10
2022-12-27T00:48:32.024Z,2.35
2022-12-27T00:51:03.201Z,0.90
2022-12-27T00:53:34.245Z,1.33
2022-12-27T00:56:04.701Z,1.92
2022-12-27T00:58:40.828Z,0.80
2022-12-27T01:01:12.590Z,1.95
2022-12-27T01:03:43.044Z,1.88
2022-12-27T01:06:15.382Z,0.65
2022-12-27T01:08:45.930Z,1.65
2022-12-27T01:11:17.263Z,2.58
2022-12-27T01:13:50.129Z,3.30
2022-12-27T01:16:22.081Z,6.30
2022-12-27T01:18:52.481Z,3.90
2022-12-27T01:21:24.009Z,2.72
2022-12-27T01:23:55.382Z,3.58
2022-12-27T01:26:26.814Z,3.47
2022-12-27T01:28:59.381Z,2.72
2022-12-27T01:31:30.838Z,4.63
2022-12-27T01:34:02.442Z,4.95
2022-12-27T01:36:33.517Z,4.57
2022-12-27T01:39:03.862Z,5.18
2022-12-27T01:41:48.302Z,3.47
2022-12-27T01:44:53.995Z,4.50
2022-12-27T01:47:41.926Z,4.45
2022-12-27T01:50:19.370Z,4.47
2022-12-27T01:52:53.622Z,3.70
2022-12-27T01:55:28.399Z,4.03
2022-12-27T01:58:01.838Z,2.67
2022-12-27T02:00:31.837Z,4.50
2022-12-27T02:03:04.969Z,2.85
2022-12-27T02:05:35.840Z,4.07
2022-12-27T02:08:15.148Z,4.05
2022-12-27T02:10:45.586Z,3.80
2022-12-27T02:13:15.697Z,6.63
2022-12-27T02:15:45.660Z,5.68
2022-12-27T02:18:18.605Z,4.75
2022-12-27T02:21:13.748Z,1.63
2022-12-27T02:24:05.401Z,2.75
2022-12-27T02:26:49.484Z,4.78
2022-12-27T02:29:30.089Z,2.20
2022-12-27T02:32:03.787Z,3.55
2022-12-27T02:34:44.130Z,3.20
2022-12-27T02:37:15.797Z,4.70
2022-12-27T02:39:49.439Z,3.50
2022-12-27T02:42:33.082Z,3.65
2022-12-27T02:45:19.820Z,3.78
2022-12-27T02:48:03.550Z,2.53
2022-12-27T02:50:56.393Z,1.55
2022-12-27T02:53:36.094Z,1.92
2022-12-27T02:56:28.493Z,1.38
2022-12-27T02:59:10.712Z,3.67
2022-12-27T03:02:03.810Z,1.23
2022-12-27T03:04:49.157Z,2.67
2022-12-27T03:07:29.280Z,2.92
2022-12-27T03:10:21.788Z,1.65
2022-12-27T03:13:11.975Z,1.48
2022-12-27T03:15:59.775Z,0.43
2022-12-27T03:18:49.478Z,1.90
2022-12-27T03:21:35.094Z,1.83
2022-12-27T03:24:17.268Z,1.60
2022-12-27T03:26:50.375Z,0.75
2022-12-27T03:29:34.682Z,2.08
2022-12-27T03:32:19.805Z,3.50
2022-12-27T03:34:55.466Z,3.60
2022-12-27T03:37:41.320Z,1.02
2022-12-27T03:40:14.593Z,2.85
2022-12-27T03:42:59.779Z,2.05
2022-12-27T03:45:46.173Z,3.90
2022-12-27T03:48:17.743Z,1.95
2022-12-27T03:50:55.983Z,1.25
2022-12-27T03:53:29.221Z,2.72
2022-12-27T03:55:59.513Z,0.93
2022-12-27T03:58:29.502Z,2.78
2022-12-27T04:00:59.525Z,2.72
2022-12-27T04:03:29.603Z,5.22
2022-12-27T04:06:02.318Z,4.28
2022-12-27T04:08:44.704Z,1.95
2022-12-27T04:11:27.160Z,1.20
2022-12-27T04:14:09.583Z,3.30
2022-12-27T04:16:52.075Z,0.63
2022-12-27T04:19:34.429Z,2.13
2022-12-27T04:22:19.447Z,2.10
2022-12-27T04:25:01.799Z,1.17
2022-12-27T04:27:44.252Z,3.17
2022-12-27T04:30:27.030Z,3.35
2022-12-27T04:33:09.445Z,4.68
2022-12-27T04:35:39.451Z,6.07
2022-12-27T04:38:12.095Z,0.55
2022-12-27T04:40:54.430Z,2.58
2022-12-27T04:43:36.909Z,4.95
2022-12-27T04:46:19.459Z,3.63
2022-12-27T04:49:01.987Z,3.63
2022-12-27T04:51:44.364Z,2.60
2022-12-27T04:54:33.843Z,8.60
2022-12-27T04:57:03.818Z,3.42
2022-12-27T04:59:46.975Z,4.10
2022-12-27T05:02:17.510Z,3.22
2022-12-27T05:04:48.295Z,3.03
2022-12-27T05:07:30.989Z,2.90
2022-12-27T05:10:17.194Z,1.20
2022-12-27T05:12:59.800Z,2.30
2022-12-27T05:15:29.876Z,7.43
2022-12-27T05:18:00.041Z,5.93
2022-12-27T05:20:30.157Z,2.95
2022-12-27T05:23:12.755Z,2.80
2022-12-27T05:25:47.552Z,1.67
2022-12-27T05:28:17.559Z,3.15
2022-12-27T05:30:47.744Z,11.23
2022-12-27T05:33:17.797Z,1.92
2022-12-27T05:35:47.999Z,5.68
2022-12-27T05:38:18.020Z,4.30
2022-12-27T05:40:50.674Z,5.15
2022-12-27T05:43:20.692Z,5.90
2022-12-27T05:45:50.709Z,1.95
2022-12-27T05:48:20.700Z,4.90
2022-12-27T05:50:50.822Z,7.28
2022-12-27T05:53:20.848Z,6.00
2022-12-27T05:55:59.177Z,2.70
2022-12-27T05:58:29.320Z,7.00
2022-12-27T06:01:00.198Z,1.80
2022-12-27T06:03:30.943Z,11.10
2022-12-27T06:06:04.726Z,4.22
2022-12-27T06:08:35.053Z,3.97
2022-12-27T06:11:10.114Z,5.38
2022-12-27T06:13:41.185Z,8.50
2022-12-27T06:16:12.876Z,2.72
2022-12-27T06:18:44.383Z,5.38
2022-12-27T06:21:16.246Z,3.28
2022-12-27T06:23:47.544Z,7.57
2022-12-27T06:26:21.856Z,5.05
2022-12-27T06:28:52.354Z,1.15
2022-12-27T06:31:23.099Z,2.08
2022-12-27T06:33:54.809Z,5.57
2022-12-27T06:36:27.803Z,1.85
2022-12-27T06:38:57.927Z,5.18
2022-12-27T06:41:30.543Z,6.85
2022-12-27T06:44:01.253Z,7.32
2022-12-27T06:46:31.250Z,7.82
2022-12-27T06:49:01.322Z,10.18
2022-12-27T06:51:32.899Z,4.30
2022-12-27T06:54:02.948Z,5.28
2022-12-27T06:56:35.525Z,5.57
2022-12-27T06:59:05.628Z,14.20
2022-12-27T07:01:35.766Z,8.25
2022-12-27T07:04:05.864Z,11.02
2022-12-27T07:06:39.777Z,12.30
2022-12-27T07:09:09.823Z,6.28
2022-12-27T07:11:43.334Z,6.05
2022-12-27T07:14:13.756Z,6.85
2022-12-27T07:16:43.869Z,12.82
2022-12-27T07:19:14.210Z,6.28
2022-12-27T07:21:44.450Z,5.93
2022-12-27T07:24:14.606Z,5.43
2022-12-27T07:26:47.228Z,4.45
2022-12-27T07:29:17.422Z,9.48
2022-12-27T07:31:47.567Z,7.30
2022-12-27T07:34:17.619Z,4.85
2022-12-27T07:36:47.679Z,8.93
2022-12-27T07:39:19.257Z,7.95
2022-12-27T07:41:51.953Z,3.17
2022-12-27T07:44:21.984Z,7.55
2022-12-27T07:46:52.586Z,5.45
2022-12-27T07:49:22.785Z,5.82
2022-12-27T07:51:52.840Z,7.43
2022-12-27T07:54:23.055Z,6.40
2022-12-27T07:56:55.686Z,34.35
2022-12-27T07:59:27.631Z,7.28
2022-12-27T08:02:09.872Z,7.32
2022-12-27T08:04:40.822Z,10.68
2022-12-27T08:07:12.885Z,5.70
2022-12-27T08:09:44.171Z,6.40
2022-12-27T08:12:17.299Z,4.75
2022-12-27T08:14:48.178Z,5.72
2022-12-27T08:17:20.924Z,7.72
2022-12-27T08:19:51.373Z,4.85
2022-12-27T08:22:21.460Z,7.18
2022-12-27T08:24:51.522Z,7.00
2022-12-27T08:27:28.026Z,2.55
2022-12-27T08:29:58.051Z,7.03
2022-12-27T08:32:28.171Z,7.13
2022-12-27T08:35:12.127Z,23.10
2022-12-27T08:37:48.239Z,19.27
2022-12-27T08:40:18.293Z,10.93
2022-12-27T08:42:50.995Z,9.48
2022-12-27T08:45:21.043Z,7.68
2022-12-27T08:47:51.083Z,3.67
2022-12-27T08:50:21.163Z,3.70
2022-12-27T08:52:51.419Z,10.57
2022-12-27T08:55:21.462Z,4.78
2022-12-27T08:57:54.039Z,2.45
2022-12-27T09:00:24.107Z,4.55
2022-12-27T09:02:54.107Z,5.53
2022-12-27T09:05:24.261Z,93.63
2022-12-27T09:07:54.716Z,9.18
2022-12-27T09:10:26.304Z,6.43
2022-12-27T09:12:58.992Z,3.78
2022-12-27T09:15:28.993Z,9.15
2022-12-27T09:17:59.265Z,4.93
2022-12-27T09:20:29.270Z,5.95
2022-12-27T09:22:59.295Z,7.85
2022-12-27T09:25:29.448Z,6.05
2022-12-27T09:28:02.168Z,5.30
2022-12-27T09:30:32.189Z,8.07
2022-12-27T09:33:02.190Z,6.63
2022-12-27T09:35:36.939Z,6.68
2022-12-27T09:38:09.198Z,6.00
2022-12-27T09:40:40.323Z,13.50
2022-12-27T09:43:23.968Z,3.83
2022-12-27T09:46:00.032Z,4.15
2022-12-27T09:48:34.995Z,15.38
2022-12-27T09:51:08.612Z,12.25
2022-12-27T09:53:44.790Z,10.05
2022-12-27T09:56:15.969Z,10.15
2022-12-27T09:58:52.851Z,11.45
2022-12-27T10:01:25.889Z,6.50
2022-12-27T10:03:56.875Z,20.00
2022-12-27T10:06:43.084Z,11.48
2022-12-27T10:09:30.777Z,8.23
2022-12-27T10:12:04.905Z,8.65
2022-12-27T10:14:52.011Z,13.80
2022-12-27T10:17:31.555Z,5.25
2022-12-27T10:20:16.515Z,9.77
2022-12-27T10:22:49.593Z,7.00
2022-12-27T10:25:22.433Z,6.22
2022-12-27T10:27:53.373Z,3.00
2022-12-27T10:30:26.300Z,8.07
2022-12-27T10:32:56.308Z,5.28
2022-12-27T10:35:29.029Z,5.07
2022-12-27T10:38:01.832Z,5.25
2022-12-27T10:40:41.027Z,14.88
2022-12-27T10:43:17.297Z,3.10
2022-12-27T10:45:50.001Z,5.95
2022-12-27T10:48:22.806Z,8.43
2022-12-27T10:50:58.440Z,5.20
2022-12-27T10:53:40.104Z,4.22
2022-12-27T10:56:18.406Z,11.25
2022-12-27T10:58:56.611Z,9.00
2022-12-27T11:01:34.026Z,5.25
2022-12-27T11:04:21.014Z,4.50
2022-12-27T11:06:52.967Z,4.60
2022-12-27T11:09:31.613Z,6.45
2022-12-27T11:12:19.598Z,10.10
2022-12-27T11:15:00.954Z,4.53
2022-12-27T11:17:39.326Z,5.10
2022-12-27T11:20:22.975Z,4.13
2022-12-27T11:22:55.260Z,4.03
2022-12-27T11:25:25.636Z,5.78
2022-12-27T11:27:58.687Z,4.35
2022-12-27T11:30:32.134Z,4.85
2022-12-27T11:33:07.322Z,4.50
2022-12-27T11:35:40.058Z,7.13
2022-12-27T11:38:20.234Z,7.45
2022-12-27T11:40:59.621Z,4.90
2022-12-27T11:43:32.389Z,3.17
2022-12-27T11:46:03.914Z,6.10
2022-12-27T11:48:39.396Z,4.32
2022-12-27T11:51:27.622Z,8.63
2022-12-27T11:54:16.784Z,6.20
2022-12-27T11:56:49.055Z,3.83
2022-12-27T11:59:31.956Z,6.35
2022-12-27T12:02:18.011Z,5.53
2022-12-27T12:05:18.020Z,2.88
2022-12-27T12:08:04.585Z,5.13
2022-12-27T12:10:45.077Z,4.15
2022-12-27T12:13:37.131Z,0.88
2022-12-27T12:16:29.916Z,5.18
2022-12-27T12:19:08.874Z,5.95
2022-12-27T12:21:44.562Z,4.13
2022-12-27T12:24:44.976Z,4.13
2022-12-27T12:27:46.043Z,6.43
2022-12-27T12:30:30.180Z,6.75
2022-12-27T12:33:10.767Z,7.45
2022-12-27T12:35:52.673Z,3.67
2022-12-27T12:38:27.367Z,5.88
2022-12-27T12:41:19.707Z,4.35
2022-12-27T12:44:19.611Z,3.08
2022-12-27T12:46:57.163Z,5.03
2022-12-27T12:49:41.262Z,4.25
2022-12-27T12:52:28.642Z,9.52
2022-12-27T12:55:36.564Z,5.32
2022-12-27T12:58:29.449Z,8.23
2022-12-27T13:01:13.978Z,7.68
2022-12-27T13:04:09.663Z,4.95
2022-12-27T13:06:53.705Z,5.53
2022-12-27T13:09:35.574Z,7.88
2022-12-27T13:12:08.993Z,6.40
2022-12-27T13:14:56.150Z,9.73
2022-12-27T13:17:33.238Z,5.32
2022-12-27T13:20:20.805Z,10.32
2022-12-27T13:22:59.526Z,5.70
2022-12-27T13:25:34.566Z,6.57
2022-12-27T13:28:18.693Z,9.07
2022-12-27T13:30:58.573Z,3.78
2022-12-27T13:33:37.379Z,5.95
2022-12-27T13:36:20.162Z,6.88
2022-12-27T13:39:09.535Z,12.93
2022-12-27T13:41:53.149Z,5.10
2022-12-27T13:44:36.769Z,9.48
2022-12-27T13:47:39.778Z,28.25
2022-12-27T13:50:26.289Z,5.88
2022-12-27T13:53:06.805Z,7.47
2022-12-27T13:55:40.981Z,11.98
2022-12-27T13:58:28.795Z,9.30
2022-12-27T14:01:04.476Z,8.13
2022-12-27T14:04:05.576Z,8.07
2022-12-27T14:06:47.320Z,6.32
2022-12-27T14:09:30.797Z,8.63
2022-12-27T14:12:16.444Z,9.40
2022-12-27T14:14:47.191Z,9.73
2022-12-27T14:17:27.349Z,7.07
2022-12-27T14:20:13.675Z,8.73
2022-12-27T14:23:24.899Z,6.47
2022-12-27T14:26:35.896Z,8.70
2022-12-27T14:29:31.671Z,10.52
2022-12-27T14:32:25.003Z,9.57
2022-12-27T14:35:24.942Z,4.15
2022-12-27T14:38:32.448Z,6.55
2022-12-27T14:41:32.599Z,8.55
2022-12-27T14:44:31.338Z,11.00
2022-12-27T14:47:40.061Z,12.45
2022-12-27T14:50:39.433Z,12.05
2022-12-27T14:56:06.307Z,11.13
2022-12-27T14:58:59.700Z,14.55
2022-12-27T15:01:48.606Z,15.65
2022-12-27T15:04:46.899Z,9.00
2022-12-27T15:07:39.224Z,10.38
2022-12-27T15:10:18.779Z,17.00
2022-12-27T15:12:54.483Z,9.35
2022-12-27T15:15:30.570Z,11.45
2022-12-27T15:18:28.482Z,25.02
2022-12-27T15:21:18.675Z,14.25
2022-12-27T15:23:54.536Z,21.83
2022-12-27T15:26:35.904Z,10.90
2022-12-27T15:29:18.098Z,12.98
2022-12-27T15:32:02.618Z,11.02
2022-12-27T15:34:44.631Z,13.93
2022-12-27T15:37:44.631Z,5.13
2022-12-27T15:40:44.212Z,18.40
2022-12-27T15:43:31.841Z,14.80
2022-12-27T15:46:13.831Z,19.98
2022-12-27T15:49:03.656Z,15.68
2022-12-27T15:51:36.785Z,18.00
2022-12-27T15:54:24.541Z,8.93
2022-12-27T15:57:15.409Z,11.57
2022-12-27T15:59:51.335Z,6.25
2022-12-27T16:02:32.871Z,9.38
2022-12-27T16:05:15.074Z,8.38
2022-12-27T16:07:47.917Z,7.40
2022-12-27T16:10:38.413Z,9.55
2022-12-27T16:13:23.266Z,11.10
2022-12-27T16:15:57.531Z,13.45
2022-12-27T16:19:03.173Z,6.07
2022-12-27T16:21:44.325Z,5.28
2022-12-27T16:28:20.613Z,4.88
2022-12-27T16:31:15.893Z,3.55
2022-12-27T16:33:49.802Z,5.95
2022-12-27T16:36:24.722Z,3.40
2022-12-27T16:39:05.881Z,4.80
2022-12-27T16:42:03.725Z,7.63
2022-12-27T16:44:48.463Z,8.25
2022-12-27T16:47:47.011Z,8.77
2022-12-27T16:50:46.685Z,9.35
2022-12-27T16:53:33.354Z,6.55
2022-12-27T16:56:15.350Z,8.32
2022-12-27T16:58:46.442Z,8.18
2022-12-27T17:01:38.334Z,6.80
2022-12-27T17:04:11.185Z,6.55
2022-12-27T17:06:59.224Z,4.60
2022-12-27T17:09:46.270Z,6.13
2022-12-27T17:12:24.327Z,7.03
2022-12-27T17:14:57.919Z,11.65
2022-12-27T17:17:28.451Z,15.57
2022-12-27T17:20:04.329Z,16.55
2022-12-27T17:22:35.961Z,12.52
2022-12-27T17:25:06.835Z,18.60
2022-12-27T17:27:51.976Z,9.88
2022-12-27T17:30:22.977Z,15.68
2022-12-27T17:33:08.621Z,12.32
2022-12-27T17:35:51.289Z,11.73
2022-12-27T17:38:32.570Z,7.78
2022-12-27T17:41:15.144Z,4.93
2022-12-27T17:44:04.601Z,8.90
2022-12-27T17:46:41.847Z,9.20
2022-12-27T17:49:12.737Z,7.20
2022-12-27T17:52:07.535Z,7.40
2022-12-27T17:54:49.891Z,9.77
2022-12-27T17:57:46.506Z,7.35
2022-12-27T18:00:25.396Z,8.48
2022-12-27T18:02:56.411Z,7.90
2022-12-27T18:05:30.642Z,9.05
2022-12-27T18:08:08.114Z,5.88
2022-12-27T18:10:39.364Z,13.27
2022-12-27T18:13:09.971Z,17.65
2022-12-27T18:15:40.703Z,23.35
2022-12-27T18:18:11.768Z,20.77
2022-12-27T18:20:43.828Z,15.07
2022-12-27T18:23:22.786Z,23.85
2022-12-27T18:25:58.580Z,15.00
2022-12-27T18:28:33.589Z,20.35
2022-12-27T18:31:07.480Z,13.70
2022-12-27T18:33:40.763Z,8.05
2022-12-27T18:36:13.134Z,7.10
2022-12-27T18:38:48.724Z,17.67
2022-12-27T18:41:21.280Z,12.40
2022-12-27T18:43:54.942Z,15.30
2022-12-27T18:46:28.861Z,8.43
2022-12-27T18:48:59.202Z,6.10
2022-12-27T18:51:33.945Z,7.57
2022-12-27T18:54:24.064Z,15.90
2022-12-27T18:56:55.327Z,6.97
2022-12-27T18:59:28.017Z,10.75
2022-12-27T19:02:00.109Z,7.05
2022-12-27T19:04:31.726Z,14.85
2022-12-27T19:07:09.872Z,31.10
2022-12-27T19:09:45.921Z,20.42
2022-12-27T19:12:25.820Z,11.50
2022-12-27T19:14:56.732Z,14.73
2022-12-27T19:17:30.707Z,9.52
2022-12-27T19:20:03.382Z,13.73
2022-12-27T19:22:37.119Z,18.13
2022-12-27T19:25:22.395Z,17.88
2022-12-27T19:28:04.102Z,12.68
2022-12-27T19:30:35.890Z,16.55
2022-12-27T19:33:10.117Z,10.20
2022-12-27T19:35:40.193Z,13.43
2022-12-27T19:38:10.220Z,17.45
2022-12-27T19:40:42.876Z,13.73
2022-12-27T19:43:13.510Z,11.82
2022-12-27T19:45:43.520Z,10.35
2022-12-27T19:48:14.218Z,10.20
2022-12-27T19:50:47.858Z,13.00
2022-12-27T19:53:19.812Z,9.20
2022-12-27T19:55:52.412Z,12.48
2022-12-27T19:58:25.461Z,19.95
2022-12-27T20:00:55.832Z,10.10
2022-12-27T20:03:26.253Z,14.52
2022-12-27T20:06:13.953Z,21.92
2022-12-27T20:08:48.339Z,14.73
2022-12-27T20:11:22.623Z,13.00
2022-12-27T20:13:52.763Z,8.38
2022-12-27T20:16:23.246Z,9.23
2022-12-27T20:18:53.299Z,5.95
2022-12-27T20:21:23.809Z,5.80
2022-12-27T20:23:53.974Z,9.75
2022-12-27T20:26:27.795Z,14.02
2022-12-27T20:28:57.847Z,17.65
2022-12-27T20:31:27.893Z,8.52
2022-12-27T20:33:58.812Z,16.42
2022-12-27T20:36:28.927Z,21.55
2022-12-27T20:38:59.025Z,13.23
2022-12-27T20:41:31.479Z,8.85
2022-12-27T20:44:01.843Z,7.65
2022-12-27T20:46:31.988Z,7.40
2022-12-27T20:49:03.565Z,12.48
2022-12-27T20:51:34.495Z,9.23
2022-12-27T20:54:06.419Z,10.32
2022-12-27T20:56:39.043Z,11.07
2022-12-27T20:59:09.225Z,12.73
2022-12-27T21:01:39.333Z,16.35
2022-12-27T21:04:09.547Z,9.98
2022-12-27T21:06:39.506Z,12.73
2022-12-27T21:09:10.108Z,13.88
2022-12-27T21:11:42.705Z,16.75
2022-12-27T21:14:14.188Z,17.60
2022-12-27T21:16:44.410Z,22.67
2022-12-27T21:19:15.087Z,17.48
2022-12-27T21:21:45.110Z,20.92
2022-12-27T21:24:15.277Z,18.77
2022-12-27T21:26:51.944Z,19.55
2022-12-27T21:29:26.181Z,27.30
2022-12-27T21:31:56.287Z,49.55
2022-12-27T21:34:26.649Z,37.65
2022-12-27T21:36:57.153Z,32.45
2022-12-27T21:39:27.193Z,29.27
2022-12-27T21:41:59.700Z,27.35
2022-12-27T21:44:30.086Z,37.70
2022-12-27T21:47:00.415Z,29.23
2022-12-27T21:49:30.635Z,30.15
2022-12-27T21:52:00.569Z,18.70
2022-12-27T21:54:40.882Z,36.88
2022-12-27T21:57:13.512Z,19.63
2022-12-27T21:59:43.491Z,16.98
2022-12-27T22:02:13.732Z,11.18
2022-12-27T22:04:43.946Z,15.00
2022-12-27T22:07:13.905Z,15.30
2022-12-27T22:09:43.865Z,16.63
2022-12-27T22:12:16.567Z,17.17
2022-12-27T22:14:46.810Z,28.90
2022-12-27T22:17:16.798Z,24.88
2022-12-27T22:19:46.859Z,17.63
2022-12-27T22:22:16.879Z,20.52
2022-12-27T22:24:46.809Z,10.63
2022-12-27T22:27:19.385Z,12.95
2022-12-27T22:29:49.454Z,11.25
2022-12-27T22:32:19.417Z,11.65
2022-12-27T22:34:49.377Z,31.30
2022-12-27T22:37:19.427Z,15.93
2022-12-27T22:39:49.354Z,16.33
2022-12-27T22:42:21.930Z,11.88
2022-12-27T22:44:51.946Z,31.77
2022-12-27T22:47:26.718Z,20.08
2022-12-27T22:49:57.836Z,23.58
2022-12-27T22:52:27.883Z,15.13
2022-12-27T22:55:05.483Z,12.50
2022-12-27T22:57:39.791Z,27.50
2022-12-27T23:00:12.512Z,12.00
2022-12-27T23:02:42.803Z,10.65
2022-12-27T23:05:13.110Z,30.90
2022-12-27T23:08:05.156Z,18.30
2022-12-27T23:10:33.218Z,23.48
2022-12-27T23:13:05.882Z,21.50
2022-12-27T23:15:35.914Z,17.60
2022-12-27T23:18:06.022Z,30.58
2022-12-27T23:20:36.603Z,21.80
2022-12-27T23:23:06.580Z,6.20
2022-12-27T23:25:38.537Z,8.70
2022-12-27T23:28:11.616Z,11.50
2022-12-27T23:30:41.719Z,49.92
2022-12-27T23:33:11.840Z,48.88
2022-12-27T23:35:41.831Z,57.47
2022-12-27T23:38:11.847Z,63.03
2022-12-27T23:40:41.887Z,42.08
2022-12-27T23:43:50.700Z,43.63
2022-12-27T23:46:07.868Z,49.33
2022-12-27T23:48:38.084Z,61.65
2022-12-27T23:51:08.456Z,39.03
2022-12-27T23:53:38.546Z,30.52
2022-12-27T23:56:10.754Z,21.42
2022-12-27T23:58:43.540Z,18.10
